Time;durP1;ratioP1;P1;durP2;ratioP2;P2;SDS_P1;SDS_P2;PMS_P1;PMS_P2;Temp;Humidity;BMP_temperature;BMP_pressure;BME280_temperature;BME280_humidity;BME280_pressure;Samples;Min_cycle;Max_cycle;Signal;HPM_P1;HPM_P2
2020/12/12 00:00:35;;;;;;;2.10;1.87;;;4.80;99.90;;;;;;4955769;28;20605;-76
2020/12/12 00:03:00;;;;;;;4.10;2.10;;;4.80;99.90;;;;;;4954427;28;20300;-77
2020/12/12 00:05:26;;;;;;;1.80;1.70;;;5.00;99.90;;;;;;4953275;29;20755;-78
2020/12/12 00:07:52;;;;;;;1.30;1.13;;;5.00;99.90;;;;;;4954089;28;20204;-77
2020/12/12 00:10:18;;;;;;;2.57;1.97;;;5.10;99.90;;;;;;4955337;29;21131;-76
2020/12/12 00:12:44;;;;;;;4.20;1.77;;;5.10;99.90;;;;;;4954556;28;20220;-76
2020/12/12 00:15:10;;;;;;;1.90;1.60;;;5.20;99.90;;;;;;4953387;29;20180;-76
2020/12/12 00:17:36;;;;;;;1.77;1.67;;;5.10;99.90;;;;;;4937322;29;20218;-76
2020/12/12 00:20:02;;;;;;;2.00;1.47;;;5.00;99.90;;;;;;4955777;29;20176;-77
2020/12/12 00:22:28;;;;;;;3.70;2.40;;;5.00;99.90;;;;;;4953281;28;20271;-76
2020/12/12 00:24:53;;;;;;;2.20;1.80;;;5.00;99.90;;;;;;4932151;29;20193;-76
2020/12/12 00:27:21;;;;;;;1.77;1.67;;;4.90;99.90;;;;;;4947010;29;20241;-77
2020/12/12 00:29:48;;;;;;;3.15;2.55;;;4.90;99.90;;;;;;4955198;29;20180;-76
2020/12/12 00:32:13;;;;;;;1.80;1.58;;;4.90;99.90;;;;;;4954135;28;20646;-76
2020/12/12 00:34:39;;;;;;;2.10;1.93;;;4.90;99.90;;;;;;4954760;29;20219;-77
2020/12/12 00:37:05;;;;;;;2.00;1.80;;;4.90;99.90;;;;;;4953350;29;20234;-76
2020/12/12 00:39:30;;;;;;;2.10;1.90;;;4.90;99.90;;;;;;4954695;29;20278;-76
2020/12/12 00:41:56;;;;;;;1.73;1.63;;;4.80;99.90;;;;;;4954168;28;20224;-76
2020/12/12 00:44:21;;;;;;;2.00;1.80;;;4.80;99.90;;;;;;4954851;29;20168;-76
2020/12/12 00:46:47;;;;;;;3.93;2.60;;;4.80;99.90;;;;;;4928559;29;20232;-77
2020/12/12 00:49:13;;;;;;;2.33;2.13;;;4.60;99.90;;;;;;4952916;29;20254;-76
2020/12/12 00:51:39;;;;;;;2.40;2.20;;;4.70;99.90;;;;;;4952826;28;20216;-76
2020/12/12 00:54:05;;;;;;;3.22;2.22;;;4.60;99.90;;;;;;4953378;29;20262;-77
2020/12/12 00:56:31;;;;;;;2.97;2.70;;;4.60;99.90;;;;;;4924381;29;20319;-76
2020/12/12 00:58:56;;;;;;;2.97;2.03;;;4.60;99.90;;;;;;4954918;29;20420;-77
2020/12/12 01:01:22;;;;;;;4.83;3.23;;;4.60;99.90;;;;;;4953272;28;20447;-76
2020/12/12 01:03:48;;;;;;;3.17;2.60;;;4.60;99.90;;;;;;4953303;29;20263;-77
2020/12/12 01:06:17;;;;;;;3.77;2.90;;;4.70;99.90;;;;;;4947516;29;20432;-77
2020/12/12 01:08:43;;;;;;;2.58;2.10;;;4.80;99.90;;;;;;4952071;29;20443;-77
2020/12/12 01:11:10;;;;;;;2.95;2.45;;;4.90;99.90;;;;;;4953260;28;20682;-78
2020/12/12 01:13:37;;;;;;;3.95;2.80;;;4.90;99.90;;;;;;4952746;29;20623;-77
2020/12/12 01:16:14;;;;;;;2.65;2.30;;;4.90;99.90;;;;;;4950083;29;20239;-77
2020/12/12 01:18:40;;;;;;;4.18;2.20;;;4.90;99.90;;;;;;4937999;29;20178;-77
2020/12/12 01:21:07;;;;;;;2.75;2.40;;;5.00;99.90;;;;;;4953435;28;20188;-77
2020/12/12 01:23:33;;;;;;;3.10;2.17;;;5.00;99.90;;;;;;4952822;28;20180;-77
2020/12/12 01:25:59;;;;;;;3.55;2.20;;;5.00;99.90;;;;;;4951387;28;20267;-77
2020/12/12 01:28:25;;;;;;;3.20;2.78;;;4.90;99.90;;;;;;4955120;28;20194;-77
2020/12/12 01:30:52;;;;;;;3.55;2.20;;;4.80;99.90;;;;;;4953983;29;20278;-77
2020/12/12 01:33:18;;;;;;;2.78;2.35;;;4.90;99.90;;;;;;4953771;28;20242;-76
2020/12/12 01:35:44;;;;;;;2.83;2.42;;;4.90;99.90;;;;;;4949479;29;20172;-76
2020/12/12 01:38:10;;;;;;;3.50;2.87;;;4.90;99.90;;;;;;4934805;29;20304;-76
2020/12/12 01:40:36;;;;;;;3.50;3.13;;;4.90;99.90;;;;;;4940364;28;20976;-76
2020/12/12 01:43:02;;;;;;;4.70;2.80;;;4.90;99.90;;;;;;4953171;29;21026;-76
2020/12/12 01:45:27;;;;;;;3.60;3.30;;;4.90;99.90;;;;;;4946985;29;20432;-76
2020/12/12 01:47:54;;;;;;;5.43;3.60;;;5.00;99.90;;;;;;4934547;29;20209;-76
2020/12/12 01:50:20;;;;;;;4.72;3.20;;;4.90;99.90;;;;;;4945352;29;20176;-77
2020/12/12 01:52:50;;;;;;;5.82;3.65;;;4.90;99.90;;;;;;4953185;28;20219;-76
2020/12/12 01:55:21;;;;;;;4.82;3.97;;;4.90;99.90;;;;;;4946932;29;20172;-76
2020/12/12 01:57:49;;;;;;;4.18;3.20;;;4.90;99.90;;;;;;4934884;29;20640;-76
2020/12/12 02:00:15;;;;;;;3.80;3.42;;;5.00;99.90;;;;;;4953776;29;20698;-76
2020/12/12 02:02:46;;;;;;;5.07;3.77;;;5.10;99.90;;;;;;4952609;28;20223;-76
2020/12/12 02:05:45;;;;;;;3.90;3.05;;;5.10;99.90;;;;;;4932674;29;20173;-76
2020/12/12 02:08:18;;;;;;;7.00;3.63;;;5.10;99.90;;;;;;4952521;29;20212;-76
2020/12/12 02:10:47;;;;;;;4.35;3.50;;;5.10;99.90;;;;;;4936273;28;20243;-76
2020/12/12 02:13:14;;;;;;;4.25;3.30;;;5.10;99.90;;;;;;4952806;29;20243;-76
2020/12/12 02:15:40;;;;;;;4.13;3.72;;;5.10;99.90;;;;;;4952525;29;20183;-76
2020/12/12 02:18:07;;;;;;;3.45;2.90;;;5.00;99.90;;;;;;4952532;29;20780;-77
2020/12/12 02:20:34;;;;;;;3.90;3.45;;;5.00;99.90;;;;;;4952538;28;20546;-77
2020/12/12 02:23:00;;;;;;;5.45;4.40;;;5.00;99.90;;;;;;4952785;29;20289;-77
2020/12/12 02:25:25;;;;;;;3.28;2.97;;;5.10;99.90;;;;;;4947249;29;20169;-77
2020/12/12 02:27:54;;;;;;;4.70;3.87;;;5.00;99.90;;;;;;4949388;28;20254;-77
2020/12/12 02:30:22;;;;;;;4.85;3.20;;;5.00;99.90;;;;;;4953238;29;20255;-78
2020/12/12 02:32:49;;;;;;;4.53;3.03;;;5.00;99.90;;;;;;4952468;28;20284;-77
2020/12/12 02:35:16;;;;;;;5.15;3.72;;;5.00;99.90;;;;;;4954841;28;20191;-77
2020/12/12 02:37:42;;;;;;;4.15;2.80;;;5.00;99.90;;;;;;4953940;29;20212;-77
2020/12/12 02:40:07;;;;;;;4.60;3.67;;;5.00;99.90;;;;;;4939636;29;20179;-77
2020/12/12 02:42:33;;;;;;;3.07;2.80;;;4.90;99.90;;;;;;4955613;28;20243;-78
2020/12/12 02:44:59;;;;;;;4.10;2.90;;;5.00;99.90;;;;;;4955707;29;20516;-77
2020/12/12 02:47:25;;;;;;;4.50;3.87;;;5.00;99.90;;;;;;4953214;29;20211;-76
2020/12/12 02:50:05;;;;;;;4.63;3.80;;;4.90;99.90;;;;;;4957089;29;20414;-76
2020/12/12 02:52:30;;;;;;;4.80;4.30;;;5.00;99.90;;;;;;4962414;28;20533;-77
2020/12/12 02:54:56;;;;;;;6.13;4.20;;;5.00;99.90;;;;;;4959924;28;20576;-76
2020/12/12 02:57:22;;;;;;;5.33;4.30;;;5.00;99.90;;;;;;4955996;29;20238;-77
2020/12/12 02:59:47;;;;;;;5.93;5.03;;;4.90;99.90;;;;;;4939000;29;20183;-76
2020/12/12 03:02:13;;;;;;;5.93;4.83;;;5.00;99.90;;;;;;4938795;29;20228;-76
2020/12/12 03:04:39;;;;;;;5.43;4.93;;;5.00;99.90;;;;;;4954373;29;20176;-76
2020/12/12 03:07:04;;;;;;;6.80;4.70;;;5.00;99.90;;;;;;4959728;28;20758;-76
2020/12/12 03:09:30;;;;;;;5.40;4.90;;;5.00;99.90;;;;;;4966174;28;20550;-77
2020/12/12 03:11:56;;;;;;;5.80;5.20;;;5.00;99.90;;;;;;4955861;28;20216;-77
2020/12/12 03:14:21;;;;;;;6.10;5.50;;;5.00;99.90;;;;;;4956570;29;20164;-77
2020/12/12 03:16:48;;;;;;;6.00;5.00;;;5.00;99.90;;;;;;4952112;29;20243;-77
2020/12/12 03:19:13;;;;;;;4.65;3.92;;;5.00;99.90;;;;;;4956788;29;20164;-77
2020/12/12 03:21:39;;;;;;;6.10;4.97;;;4.90;99.90;;;;;;4955272;28;20701;-77
2020/12/12 03:24:05;;;;;;;6.87;5.30;;;4.90;99.90;;;;;;4953708;28;20212;-76
2020/12/12 03:26:30;;;;;;;6.80;5.57;;;4.90;99.90;;;;;;4950711;29;20230;-76
2020/12/12 03:28:56;;;;;;;5.83;5.07;;;5.00;99.90;;;;;;4956261;29;20234;-77
2020/12/12 03:31:22;;;;;;;7.80;5.83;;;5.00;99.90;;;;;;4955491;28;20243;-77
2020/12/12 03:33:48;;;;;;;6.00;4.87;;;5.00;99.90;;;;;;4955827;29;20233;-77
2020/12/12 03:36:13;;;;;;;6.50;5.53;;;5.00;99.90;;;;;;4951378;29;20425;-77
2020/12/12 03:38:39;;;;;;;6.97;5.67;;;5.00;99.90;;;;;;4939766;29;20168;-77
2020/12/12 03:41:05;;;;;;;7.53;5.63;;;5.00;99.90;;;;;;4955461;28;20180;-76
2020/12/12 03:43:30;;;;;;;6.80;6.10;;;5.00;99.90;;;;;;4955777;29;20226;-77
2020/12/12 03:45:56;;;;;;;10.93;6.30;;;5.00;99.90;;;;;;4951259;29;20176;-76
2020/12/12 03:48:22;;;;;;;6.80;6.07;;;5.00;99.90;;;;;;4954199;29;20195;-77
2020/12/12 03:50:47;;;;;;;7.60;6.33;;;4.90;99.90;;;;;;4955472;28;20673;-77
2020/12/12 03:53:13;;;;;;;10.53;7.13;;;4.80;99.90;;;;;;4955481;28;20235;-77
2020/12/12 03:55:39;;;;;;;11.17;7.87;;;4.90;99.90;;;;;;4942308;29;20189;-76
2020/12/12 03:58:04;;;;;;;9.67;6.67;;;4.90;99.90;;;;;;4956959;28;20208;-76
2020/12/12 04:00:30;;;;;;;8.70;6.20;;;4.90;99.90;;;;;;4955658;28;20639;-76
2020/12/12 04:02:56;;;;;;;7.63;6.03;;;5.00;99.90;;;;;;4954227;28;20215;-77
2020/12/12 04:05:21;;;;;;;7.67;6.87;;;4.90;99.90;;;;;;4952520;29;20169;-76
2020/12/12 04:07:47;;;;;;;9.10;7.13;;;4.90;99.90;;;;;;4944599;28;20202;-76
2020/12/12 04:10:13;;;;;;;7.77;6.17;;;5.00;99.90;;;;;;4955527;28;20200;-77
2020/12/12 04:12:38;;;;;;;9.00;7.10;;;5.00;99.90;;;;;;4969679;28;20219;-77
2020/12/12 04:15:04;;;;;;;9.40;7.40;;;5.00;99.90;;;;;;4950877;29;20592;-77
2020/12/12 04:17:30;;;;;;;9.15;7.50;;;5.00;99.90;;;;;;4936525;28;20235;-76
2020/12/12 04:19:56;;;;;;;7.90;6.67;;;4.90;99.90;;;;;;4936292;29;20169;-77
2020/12/12 04:22:22;;;;;;;8.50;6.60;;;4.90;99.90;;;;;;4948411;28;20235;-77
2020/12/12 04:24:47;;;;;;;10.03;7.57;;;5.00;99.90;;;;;;4944961;29;20827;-76
2020/12/12 04:27:13;;;;;;;9.60;7.13;;;5.00;99.90;;;;;;4946688;28;20295;-77
2020/12/12 04:29:39;;;;;;;7.37;6.20;;;5.00;99.90;;;;;;4955074;28;20729;-77
2020/12/12 04:32:04;;;;;;;9.50;6.97;;;5.00;99.90;;;;;;4954285;28;20710;-76
2020/12/12 04:34:30;;;;;;;8.63;6.67;;;4.90;99.90;;;;;;4954621;29;20647;-76
2020/12/12 04:36:56;;;;;;;8.27;7.13;;;5.00;99.90;;;;;;4947358;28;20568;-76
2020/12/12 04:39:21;;;;;;;8.37;6.80;;;5.00;99.90;;;;;;4954789;28;20924;-77
2020/12/12 04:41:49;;;;;;;8.67;7.57;;;5.00;99.90;;;;;;4969094;28;20638;-76
2020/12/12 04:44:15;;;;;;;9.38;7.65;;;5.00;99.90;;;;;;4951732;28;20255;-76
2020/12/12 04:46:41;;;;;;;7.70;6.83;;;5.00;99.90;;;;;;4941643;28;20267;-77
2020/12/12 04:49:07;;;;;;;9.98;7.22;;;5.00;99.90;;;;;;4954599;29;20176;-77
2020/12/12 04:51:33;;;;;;;9.32;8.00;;;5.00;99.90;;;;;;4968661;28;20212;-76
2020/12/12 04:54:01;;;;;;;8.65;7.55;;;5.10;99.90;;;;;;4954078;29;20605;-76
2020/12/12 04:56:27;;;;;;;10.35;7.93;;;5.10;99.90;;;;;;4948679;28;20283;-76
2020/12/12 04:58:53;;;;;;;11.23;7.93;;;5.00;99.90;;;;;;4968469;28;20191;-76
2020/12/12 05:01:19;;;;;;;8.20;7.18;;;5.00;99.90;;;;;;4968810;28;20439;-77
2020/12/12 05:03:46;;;;;;;9.25;7.55;;;5.00;99.90;;;;;;4969216;28;20168;-76
2020/12/12 05:06:11;;;;;;;9.00;7.10;;;5.10;99.90;;;;;;4951706;28;20234;-77
2020/12/12 05:08:37;;;;;;;9.90;7.87;;;5.10;99.90;;;;;;4954403;29;20571;-77
2020/12/12 05:11:04;;;;;;;10.60;7.40;;;5.10;99.90;;;;;;4953149;28;20487;-77
2020/12/12 05:13:30;;;;;;;9.98;8.02;;;5.00;99.90;;;;;;4969010;28;20404;-77
2020/12/12 05:15:57;;;;;;;8.23;7.28;;;5.00;99.90;;;;;;4952381;29;20179;-77
2020/12/12 05:18:24;;;;;;;9.02;7.53;;;5.00;99.90;;;;;;4953816;29;20208;-77
2020/12/12 05:20:50;;;;;;;9.05;7.03;;;5.10;99.90;;;;;;4952489;29;20853;-77
2020/12/12 05:23:22;;;;;;;7.97;6.70;;;5.00;99.90;;;;;;4952728;28;20552;-79
2020/12/12 05:25:49;;;;;;;9.90;5.72;;;5.00;99.90;;;;;;4972226;28;20175;-77
2020/12/12 05:28:16;;;;;;;8.00;6.95;;;4.90;99.90;;;;;;4935590;28;20216;-77
2020/12/12 05:30:44;;;;;;;7.28;6.30;;;4.90;99.90;;;;;;4968500;28;20266;-77
2020/12/12 05:33:12;;;;;;;8.05;6.43;;;4.90;99.90;;;;;;4953169;28;20204;-77
2020/12/12 05:35:39;;;;;;;8.07;6.28;;;5.00;99.90;;;;;;4953371;29;20190;-78
2020/12/12 05:38:06;;;;;;;7.53;6.65;;;4.90;99.90;;;;;;4935678;29;20254;-77
2020/12/12 05:40:33;;;;;;;9.63;6.20;;;4.80;99.90;;;;;;4953687;28;20254;-77
2020/12/12 05:43:06;;;;;;;7.93;7.07;;;4.80;99.90;;;;;;4952883;29;20215;-77
2020/12/12 05:45:33;;;;;;;8.10;6.72;;;4.80;99.90;;;;;;4952812;29;20226;-78
2020/12/12 05:47:59;;;;;;;9.45;7.68;;;4.80;99.90;;;;;;4952270;28;20540;-77
2020/12/12 05:50:25;;;;;;;9.68;8.68;;;4.80;99.90;;;;;;4953672;28;20299;-77
2020/12/12 05:52:53;;;;;;;8.43;5.82;;;4.90;99.90;;;;;;4952937;28;20249;-77
2020/12/12 05:55:30;;;;;;;8.52;6.68;;;5.00;99.90;;;;;;4949943;29;20169;-77
2020/12/12 05:57:57;;;;;;;6.78;5.97;;;5.10;99.90;;;;;;4950847;28;20340;-77
2020/12/12 06:00:25;;;;;;;10.70;7.18;;;5.00;99.90;;;;;;4953580;29;20191;-77
2020/12/12 06:02:56;;;;;;;8.38;6.72;;;5.00;99.90;;;;;;4952576;28;20363;-77
2020/12/12 06:05:30;;;;;;;7.53;6.75;;;5.00;99.90;;;;;;4949489;29;20183;-77
2020/12/12 06:08:04;;;;;;;7.43;6.57;;;4.90;99.90;;;;;;4935603;29;20262;-78
2020/12/12 06:10:32;;;;;;;6.68;5.90;;;4.90;99.90;;;;;;4942915;28;20171;-77
2020/12/12 06:13:04;;;;;;;9.88;7.00;;;4.80;99.90;;;;;;4967711;28;20238;-77
2020/12/12 06:15:40;;;;;;;6.88;6.18;;;4.90;99.90;;;;;;4960582;28;20826;-77
2020/12/12 06:18:38;;;;;;;8.05;7.22;;;4.90;99.90;;;;;;4969300;28;20272;-77
2020/12/12 06:21:07;;;;;;;9.20;8.00;;;4.90;99.90;;;;;;4970938;28;20198;-77
2020/12/12 06:23:37;;;;;;;11.48;8.98;;;4.90;99.90;;;;;;4967610;28;20670;-77
2020/12/12 06:26:04;;;;;;;7.93;7.10;;;4.90;99.90;;;;;;4949405;28;20684;-78
2020/12/12 06:28:31;;;;;;;8.77;7.55;;;5.00;99.90;;;;;;4952911;29;20180;-77
2020/12/12 06:30:58;;;;;;;10.60;8.45;;;5.00;99.90;;;;;;4952333;28;20284;-77
2020/12/12 06:33:23;;;;;;;12.60;9.85;;;4.90;99.90;;;;;;4952428;28;20175;-77
2020/12/12 06:35:49;;;;;;;12.23;9.27;;;4.90;99.90;;;;;;4951489;29;20238;-77
2020/12/12 06:38:28;;;;;;;11.57;9.20;;;5.00;99.90;;;;;;4932884;28;20212;-78
2020/12/12 06:40:57;;;;;;;11.77;9.57;;;5.00;99.90;;;;;;4947950;29;20200;-77
2020/12/12 06:43:34;;;;;;;11.52;9.05;;;4.90;99.90;;;;;;4933241;29;20220;-78
2020/12/12 06:46:03;;;;;;;12.85;9.13;;;5.00;99.90;;;;;;4932725;29;20176;-77
2020/12/12 06:48:31;;;;;;;11.40;9.23;;;5.00;99.90;;;;;;4933472;29;20168;-77
2020/12/12 06:50:58;;;;;;;16.27;11.10;;;5.00;99.90;;;;;;4932944;28;20644;-78
2020/12/12 06:53:26;;;;;;;13.10;9.10;;;5.00;99.90;;;;;;4933520;29;20202;-77
2020/12/12 06:56:16;;;;;;;15.77;11.15;;;5.00;99.90;;;;;;4936353;29;20187;-78
2020/12/12 06:58:46;;;;;;;16.35;11.18;;;5.00;99.90;;;;;;4936398;28;20663;-77
2020/12/12 07:01:32;;;;;;;17.23;9.65;;;5.00;99.90;;;;;;4970939;28;20214;-77
2020/12/12 07:04:03;;;;;;;13.50;9.88;;;5.00;99.90;;;;;;4971764;28;20627;-77
2020/12/12 07:06:30;;;;;;;12.10;9.85;;;5.00;99.90;;;;;;4948807;28;20216;-77
2020/12/12 07:09:01;;;;;;;14.32;9.50;;;5.00;99.90;;;;;;4933298;29;20528;-78
2020/12/12 07:11:28;;;;;;;10.00;8.82;;;5.00;99.90;;;;;;4933965;28;20207;-78
2020/12/12 07:13:54;;;;;;;13.90;10.00;;;4.90;99.90;;;;;;4934121;29;20240;-79
2020/12/12 07:16:21;;;;;;;11.65;9.70;;;4.90;99.90;;;;;;4932573;28;20212;-78
2020/12/12 07:18:48;;;;;;;11.95;9.27;;;4.90;99.90;;;;;;4933077;29;20183;-78
2020/12/12 07:21:14;;;;;;;10.68;9.27;;;4.80;99.90;;;;;;4932712;28;20282;-78
2020/12/12 07:23:40;;;;;;;8.80;7.90;;;4.70;99.90;;;;;;4936496;29;20679;-79
2020/12/12 07:26:06;;;;;;;11.67;8.60;;;4.70;99.90;;;;;;4942425;28;20423;-78
2020/12/12 07:28:32;;;;;;;9.68;8.10;;;4.70;99.90;;;;;;4936374;29;20193;-78
2020/12/12 07:31:00;;;;;;;10.00;8.38;;;4.70;99.90;;;;;;4935737;28;20631;-78
2020/12/12 07:33:25;;;;;;;8.63;7.75;;;4.60;99.90;;;;;;4936516;29;20175;-79
2020/12/12 07:35:51;;;;;;;9.40;7.17;;;4.80;99.90;;;;;;4937152;29;20184;-78
2020/12/12 07:38:17;;;;;;;8.13;7.27;;;4.70;99.90;;;;;;4955261;28;20294;-77
2020/12/12 07:40:42;;;;;;;8.67;7.80;;;4.70;99.90;;;;;;4955217;28;20661;-78
2020/12/12 07:43:09;;;;;;;8.20;7.40;;;4.70;99.90;;;;;;4954872;28;20559;-77
2020/12/12 07:48:21;;;;;;;9.48;7.38;;;4.70;99.90;;;;;;4935907;28;20215;-77
2020/12/12 07:50:47;;;;;;;9.80;8.13;;;4.70;99.90;;;;;;4936143;29;20227;-77
2020/12/12 07:53:14;;;;;;;9.10;7.83;;;4.80;99.90;;;;;;4935716;29;20248;-78
2020/12/12 07:55:45;;;;;;;13.95;9.48;;;4.80;99.90;;;;;;4942410;29;20514;-78
2020/12/12 07:58:27;;;;;;;9.20;8.07;;;4.90;99.90;;;;;;4935847;29;20248;-78
2020/12/12 08:01:00;;;;;;;9.27;7.80;;;4.80;99.90;;;;;;4974067;28;20202;-78
2020/12/12 08:03:27;;;;;;;11.60;7.93;;;4.70;99.90;;;;;;4949727;28;20283;-79
2020/12/12 08:06:03;;;;;;;8.63;7.72;;;4.70;99.90;;;;;;4953408;29;20176;-78
2020/12/12 08:08:29;;;;;;;9.23;8.05;;;4.70;99.90;;;;;;4953848;29;20196;-78
2020/12/12 08:11:02;;;;;;;8.17;7.30;;;4.70;99.90;;;;;;4964363;28;20555;-78
2020/12/12 08:13:29;;;;;;;10.23;8.77;;;4.80;99.90;;;;;;4950356;28;20553;-77
2020/12/12 08:16:13;;;;;;;11.35;8.77;;;4.80;99.90;;;;;;4951320;29;20271;-77
2020/12/12 08:18:38;;;;;;;9.27;7.53;;;4.80;99.90;;;;;;4962033;28;20199;-77
2020/12/12 08:21:15;;;;;;;10.37;8.53;;;4.90;99.90;;;;;;4953161;28;20226;-78
2020/12/12 08:23:42;;;;;;;13.15;9.02;;;4.90;99.90;;;;;;4954585;28;20203;-78
2020/12/12 08:26:16;;;;;;;10.00;9.00;;;4.90;99.90;;;;;;4953097;28;20164;-78
2020/12/12 08:28:43;;;;;;;9.32;8.40;;;4.90;99.90;;;;;;4954176;28;20183;-78
2020/12/12 08:31:17;;;;;;;9.52;8.00;;;5.00;99.90;;;;;;4953850;28;20208;-77
2020/12/12 08:33:45;;;;;;;11.00;7.75;;;5.00;99.90;;;;;;4968435;28;20235;-77
2020/12/12 08:36:16;;;;;;;11.77;7.90;;;5.00;99.90;;;;;;4953243;28;20172;-77
2020/12/12 08:38:49;;;;;;;10.23;8.55;;;5.10;99.90;;;;;;4955874;28;20172;-77
2020/12/12 08:41:15;;;;;;;11.02;8.63;;;5.10;99.90;;;;;;4954026;28;20566;-77
2020/12/12 08:43:43;;;;;;;10.37;9.17;;;5.10;99.90;;;;;;4953942;29;20199;-77
2020/12/12 08:46:12;;;;;;;11.10;9.20;;;5.10;99.90;;;;;;4952040;28;20172;-77
2020/12/12 08:48:38;;;;;;;9.32;7.97;;;5.10;99.90;;;;;;4953923;28;20196;-78
2020/12/12 08:51:08;;;;;;;9.80;8.33;;;5.20;99.90;;;;;;4953282;28;20230;-78
2020/12/12 08:53:35;;;;;;;10.93;8.63;;;5.20;99.90;;;;;;4953769;28;20804;-78
2020/12/12 08:56:14;;;;;;;10.77;8.43;;;5.10;99.90;;;;;;4951398;28;20184;-78
2020/12/12 08:58:50;;;;;;;10.50;8.40;;;5.30;99.90;;;;;;4936296;28;20656;-77
2020/12/12 09:01:42;;;;;;;8.38;7.28;;;5.40;99.90;;;;;;4973291;28;20184;-77
2020/12/12 09:04:13;;;;;;;9.98;8.05;;;5.40;99.90;;;;;;4953741;28;20189;-77
2020/12/12 09:06:45;;;;;;;8.52;7.57;;;5.30;99.90;;;;;;4962897;28;20235;-77
2020/12/12 09:09:22;;;;;;;13.65;7.97;;;5.30;99.90;;;;;;4953703;28;20179;-77
2020/12/12 09:11:53;;;;;;;8.68;7.57;;;5.10;99.90;;;;;;4947053;28;20315;-77
2020/12/12 09:14:19;;;;;;;10.48;8.27;;;5.20;99.90;;;;;;4950453;29;20539;-77
2020/12/12 09:16:50;;;;;;;10.00;7.50;;;5.30;99.90;;;;;;4947977;28;20215;-77
2020/12/12 09:19:16;;;;;;;10.25;8.40;;;5.30;99.90;;;;;;4953661;28;20239;-77
2020/12/12 09:21:41;;;;;;;9.77;8.07;;;5.40;99.90;;;;;;4951900;28;20705;-77
2020/12/12 09:24:07;;;;;;;12.23;9.47;;;5.50;99.90;;;;;;4952435;28;20603;-77
2020/12/12 09:26:33;;;;;;;10.97;8.37;;;5.60;99.90;;;;;;4952231;28;20215;-77
2020/12/12 09:28:58;;;;;;;9.33;8.13;;;5.50;99.90;;;;;;4953928;29;20180;-77
2020/12/12 09:31:25;;;;;;;10.73;9.63;;;5.40;99.90;;;;;;4941401;28;20462;-76
2020/12/12 09:33:51;;;;;;;11.57;8.70;;;5.50;99.90;;;;;;4962758;28;21141;-77
2020/12/12 09:36:17;;;;;;;9.63;8.10;;;5.50;99.90;;;;;;4948390;28;20300;-77
2020/12/12 09:38:43;;;;;;;9.43;7.97;;;5.50;99.90;;;;;;4951515;29;20184;-77
2020/12/12 09:41:09;;;;;;;11.75;8.82;;;5.50;99.90;;;;;;4949815;28;20510;-77
2020/12/12 09:43:35;;;;;;;8.80;7.87;;;5.70;99.90;;;;;;4948226;28;20726;-77
2020/12/12 09:46:01;;;;;;;10.40;8.82;;;5.70;99.90;;;;;;4949023;28;20267;-77
2020/12/12 09:48:27;;;;;;;9.50;8.60;;;5.80;99.90;;;;;;4947247;29;20254;-77
2020/12/12 09:50:53;;;;;;;9.43;8.43;;;5.80;99.90;;;;;;4953534;28;20427;-79
2020/12/12 09:53:18;;;;;;;9.20;8.20;;;5.80;99.90;;;;;;4951902;28;21073;-78
2020/12/12 09:55:45;;;;;;;9.27;7.43;;;5.80;99.90;;;;;;4951751;29;20673;-79
2020/12/12 09:58:11;;;;;;;10.75;8.90;;;5.90;99.90;;;;;;4950194;28;20698;-77
2020/12/12 10:00:39;;;;;;;10.53;8.90;;;5.90;99.90;;;;;;4952163;28;20203;-77
2020/12/12 10:03:05;;;;;;;12.23;9.30;;;6.00;99.90;;;;;;4952447;28;20223;-77
2020/12/12 10:05:35;;;;;;;11.48;8.25;;;6.00;99.90;;;;;;4951705;29;20172;-78
2020/12/12 10:08:01;;;;;;;10.90;8.73;;;6.00;99.90;;;;;;4950443;29;20725;-78
2020/12/12 10:10:30;;;;;;;10.95;8.52;;;6.00;99.90;;;;;;4951895;28;20654;-77
2020/12/12 10:12:56;;;;;;;9.80;8.02;;;6.00;99.90;;;;;;4943082;29;20216;-77
2020/12/12 10:15:23;;;;;;;13.00;8.50;;;6.10;99.90;;;;;;4951293;29;20602;-77
2020/12/12 10:17:49;;;;;;;10.20;7.93;;;6.10;99.90;;;;;;4951474;29;20219;-77
2020/12/12 10:20:16;;;;;;;8.93;7.60;;;6.20;99.90;;;;;;4952134;29;20183;-77
2020/12/12 10:22:42;;;;;;;7.82;7.03;;;6.30;99.90;;;;;;4951168;29;20226;-77
2020/12/12 10:25:08;;;;;;;9.83;7.17;;;6.20;99.90;;;;;;4948181;29;20168;-78
2020/12/12 10:27:34;;;;;;;8.23;7.15;;;6.30;99.90;;;;;;4944799;29;20218;-78
2020/12/12 10:30:00;;;;;;;8.30;6.38;;;6.30;99.90;;;;;;4952291;29;20215;-78
2020/12/12 10:32:26;;;;;;;8.40;6.47;;;6.20;99.90;;;;;;4950954;28;20258;-78
2020/12/12 10:34:52;;;;;;;7.80;7.00;;;6.20;99.90;;;;;;4948590;29;20502;-78
2020/12/12 10:37:18;;;;;;;9.95;7.40;;;6.20;99.90;;;;;;4927441;29;20749;-77
2020/12/12 10:39:53;;;;;;;8.63;6.40;;;6.30;99.90;;;;;;4935344;29;20268;-78
2020/12/12 10:42:19;;;;;;;8.40;7.00;;;6.30;99.90;;;;;;4951905;28;20578;-77
2020/12/12 10:44:47;;;;;;;9.03;6.47;;;6.20;99.90;;;;;;4952167;29;20169;-77
2020/12/12 10:47:13;;;;;;;7.75;6.95;;;6.30;99.90;;;;;;4951137;29;20536;-77
2020/12/12 10:49:39;;;;;;;9.10;7.47;;;6.30;99.90;;;;;;4952505;29;20615;-77
2020/12/12 10:52:06;;;;;;;8.07;6.77;;;6.30;99.90;;;;;;4934752;29;20307;-77
2020/12/12 10:54:32;;;;;;;12.40;7.03;;;6.40;99.90;;;;;;4945147;29;20208;-77
2020/12/12 10:56:58;;;;;;;9.73;7.57;;;6.40;99.90;;;;;;4952799;28;20274;-78
2020/12/12 10:59:24;;;;;;;7.80;6.78;;;6.60;99.90;;;;;;4955873;29;20180;-78
2020/12/12 11:01:55;;;;;;;7.53;6.73;;;6.60;99.90;;;;;;4953596;28;20295;-77
2020/12/12 11:04:22;;;;;;;8.60;6.78;;;6.60;99.90;;;;;;4955949;29;20420;-76
2020/12/12 11:06:48;;;;;;;9.95;7.60;;;6.60;99.90;;;;;;4950742;29;20208;-77
2020/12/12 11:09:14;;;;;;;8.57;7.63;;;6.60;99.90;;;;;;4955434;29;20251;-77
2020/12/12 11:11:40;;;;;;;9.83;7.40;;;6.70;99.90;;;;;;4955208;28;20224;-77
2020/12/12 11:14:07;;;;;;;9.60;7.50;;;6.80;99.90;;;;;;4953081;29;20543;-77
2020/12/12 11:16:33;;;;;;;11.07;8.98;;;6.80;99.90;;;;;;4949236;29;20641;-77
2020/12/12 11:18:59;;;;;;;7.30;6.60;;;6.70;99.90;;;;;;4955708;28;20259;-77
2020/12/12 11:21:25;;;;;;;9.67;7.90;;;6.80;99.90;;;;;;4952216;29;20291;-76
2020/12/12 11:23:51;;;;;;;9.40;7.00;;;6.70;99.90;;;;;;4954042;29;20617;-76
2020/12/12 11:26:17;;;;;;;7.50;6.77;;;6.80;99.90;;;;;;4953942;29;20466;-77
2020/12/12 11:28:44;;;;;;;6.85;5.65;;;6.80;99.90;;;;;;4955706;29;20927;-78
2020/12/12 11:31:21;;;;;;;7.63;6.70;;;6.80;99.90;;;;;;4955073;29;20192;-77
2020/12/12 11:34:03;;;;;;;9.68;6.53;;;6.70;99.90;;;;;;4947328;29;20204;-76
2020/12/12 11:39:03;;;;;;;8.25;7.10;;;6.90;99.90;;;;;;4936649;29;20177;-76
2020/12/12 11:48:51;;;;;;;6.67;6.00;;;6.90;99.90;;;;;;4954939;29;20247;-76
2020/12/12 11:51:17;;;;;;;8.75;6.97;;;7.00;99.90;;;;;;4954854;28;20192;-76
2020/12/12 11:53:42;;;;;;;8.10;7.27;;;7.00;99.90;;;;;;4955080;29;20574;-76
2020/12/12 11:56:08;;;;;;;8.27;7.10;;;7.00;99.90;;;;;;4951281;29;20250;-77
2020/12/12 11:58:34;;;;;;;8.00;7.20;;;7.00;99.90;;;;;;4935916;29;20173;-77
2020/12/12 12:01:00;;;;;;;7.77;7.03;;;7.10;99.90;;;;;;4951010;28;20192;-77
2020/12/12 12:03:26;;;;;;;8.90;8.10;;;7.00;99.90;;;;;;4954626;29;20219;-76
2020/12/12 12:05:52;;;;;;;9.20;8.30;;;7.00;99.90;;;;;;4940963;29;20187;-76
2020/12/12 12:11:10;;;;;;;12.13;7.30;;;7.20;99.90;;;;;;4954378;28;20224;-76
2020/12/12 12:13:36;;;;;;;9.82;7.90;;;7.10;99.90;;;;;;4953156;29;20213;-76
2020/12/12 12:16:05;;;;;;;14.27;9.43;;;7.10;99.90;;;;;;4953790;29;20629;-76
2020/12/12 12:18:31;;;;;;;9.00;8.10;;;7.20;99.90;;;;;;4954758;29;20861;-76
2020/12/12 12:21:01;;;;;;;8.70;7.20;;;7.20;99.90;;;;;;4955300;29;20275;-76
2020/12/12 12:23:27;;;;;;;11.20;8.75;;;7.30;99.90;;;;;;4952814;29;20306;-76
2020/12/12 12:25:54;;;;;;;10.60;8.95;;;7.30;99.90;;;;;;4953077;29;20253;-76
2020/12/12 12:28:20;;;;;;;13.75;7.90;;;7.30;99.90;;;;;;4951909;28;20218;-76
2020/12/12 12:30:47;;;;;;;9.32;8.07;;;7.20;99.90;;;;;;4954101;29;20279;-76
2020/12/12 12:33:13;;;;;;;12.50;8.13;;;7.20;99.90;;;;;;4953914;29;20215;-76
2020/12/12 12:35:39;;;;;;;10.00;9.00;;;7.10;99.90;;;;;;4952211;29;20595;-76
2020/12/12 12:38:05;;;;;;;12.10;7.93;;;7.00;99.90;;;;;;4935846;29;20543;-76
2020/12/12 12:40:31;;;;;;;18.30;10.50;;;7.10;99.90;;;;;;4953835;28;20778;-78
2020/12/12 12:42:59;;;;;;;13.53;9.17;;;7.20;99.90;;;;;;4953321;29;20211;-77
2020/12/12 12:45:26;;;;;;;21.40;12.43;;;7.20;99.90;;;;;;4947946;29;20434;-77
2020/12/12 12:47:52;;;;;;;17.10;11.80;;;7.10;99.90;;;;;;4953524;29;20478;-76
2020/12/12 12:50:18;;;;;;;19.23;11.90;;;7.10;99.90;;;;;;4954079;29;20453;-76
2020/12/12 12:52:44;;;;;;;14.27;10.67;;;7.10;99.90;;;;;;4952158;28;20456;-76
2020/12/12 12:55:10;;;;;;;18.87;12.00;;;7.00;99.90;;;;;;4954203;29;20417;-76
2020/12/12 12:57:37;;;;;;;14.20;10.47;;;7.00;99.90;;;;;;4940863;29;20458;-76
2020/12/12 13:00:05;;;;;;;12.20;9.83;;;7.00;99.90;;;;;;4935134;29;20416;-76
2020/12/12 13:02:30;;;;;;;16.40;11.10;;;7.00;99.90;;;;;;4944263;29;20480;-76
2020/12/12 13:04:56;;;;;;;14.07;9.93;;;7.00;99.90;;;;;;4953402;29;20431;-76
2020/12/12 13:07:22;;;;;;;12.60;9.20;;;7.00;99.90;;;;;;4935270;29;20209;-76
2020/12/12 13:09:47;;;;;;;15.90;9.63;;;7.00;99.90;;;;;;4953545;29;20669;-77